RPA5802 KPWM-KLGA
Flight info
| Callsign | RPA5802 |
|---|---|
| Flight time | N/A |
| Altitude | 30000 |
| Route | HSKEL3 CAM ALB VADDR1 |
| Aircraft | E75S/M-SDE3GILORVW/S |
Departure
| Time | 2026-05-04 21:39 |
|---|---|
| Airport | Portland International Jetport (KPWM) |
Arrival
| Time | N/A |
|---|---|
| Airport | LaGuardia Airport (KLGA) |
| Time | Latitude | Longitude | Altitude | Speed | Heading |
|---|---|---|---|---|---|
| 2026-05-04 21:25 | 43.64677 | -70.31155 | 58 ft | 0 kts | 17° |
| 2026-05-04 21:33 | 43.64670 | -70.31158 | 59 ft | 4 kts | 18° |
| 2026-05-04 21:33 | 43.64645 | -70.31171 | 63 ft | 4 kts | 26° |
| 2026-05-04 21:33 | 43.64622 | -70.31190 | 63 ft | 4 kts | 38° |
| 2026-05-04 21:33 | 43.64605 | -70.31218 | 63 ft | 4 kts | 73° |
| 2026-05-04 21:34 | 43.64605 | -70.31236 | 58 ft | 1 kts | 95° |
| 2026-05-04 21:34 | 43.64605 | -70.31238 | 59 ft | 0 kts | 95° |
| 2026-05-04 21:36 | 43.64603 | -70.31208 | 62 ft | 8 kts | 95° |
| 2026-05-04 21:36 | 43.64596 | -70.31108 | 64 ft | 13 kts | 95° |
| 2026-05-04 21:36 | 43.64586 | -70.30953 | 64 ft | 20 kts | 95° |
| 2026-05-04 21:36 | 43.64573 | -70.30740 | 60 ft | 24 kts | 95° |
| 2026-05-04 21:37 | 43.64557 | -70.30492 | 57 ft | 29 kts | 95° |
| 2026-05-04 21:37 | 43.64587 | -70.30276 | 56 ft | 21 kts | 89° |
| 2026-05-04 21:37 | 43.64575 | -70.30057 | 53 ft | 24 kts | 96° |
| 2026-05-04 21:37 | 43.64548 | -70.29910 | 51 ft | 5 kts | 149° |
| 2026-05-04 21:38 | 43.64523 | -70.29908 | 53 ft | 6 kts | 181° |
| 2026-05-04 21:38 | 43.64464 | -70.29909 | 53 ft | 11 kts | 181° |
| 2026-05-04 21:38 | 43.64410 | -70.29952 | 52 ft | 9 kts | 262° |
| 2026-05-04 21:38 | 43.64426 | -70.30199 | 56 ft | 59 kts | 275° |
| 2026-05-04 21:39 | 43.64488 | -70.31120 | 71 ft | 129 kts | 277° |
| 2026-05-04 21:39 | 43.64596 | -70.32494 | 533 ft | 157 kts | 275° |
| 2026-05-04 21:39 | 43.64715 | -70.33989 | 1522 ft | 149 kts | 273° |
| 2026-05-04 21:39 | 43.64862 | -70.35473 | 2179 ft | 168 kts | 276° |
| 2026-05-04 21:40 | 43.65018 | -70.37116 | 2841 ft | 179 kts | 276° |
| 2026-05-04 21:40 | 43.64963 | -70.38905 | 3349 ft | 198 kts | 258° |
| 2026-05-04 21:40 | 43.64604 | -70.40819 | 3935 ft | 217 kts | 256° |
| 2026-05-04 21:40 | 43.64198 | -70.42955 | 4459 ft | 238 kts | 256° |
| 2026-05-04 21:41 | 43.63761 | -70.45183 | 5308 ft | 242 kts | 256° |
| 2026-05-04 21:41 | 43.63324 | -70.47413 | 6239 ft | 240 kts | 256° |
| 2026-05-04 21:41 | 43.62886 | -70.49638 | 6987 ft | 241 kts | 256° |
| 2026-05-04 21:41 | 43.62439 | -70.51875 | 7681 ft | 244 kts | 256° |
| 2026-05-04 21:42 | 43.61982 | -70.54140 | 8345 ft | 247 kts | 257° |
| 2026-05-04 21:42 | 43.61516 | -70.56442 | 8987 ft | 251 kts | 256° |
| 2026-05-04 21:42 | 43.61042 | -70.58774 | 9657 ft | 254 kts | 257° |
| 2026-05-04 21:42 | 43.60563 | -70.61131 | 10209 ft | 259 kts | 257° |
| 2026-05-04 21:43 | 43.60055 | -70.63619 | 10326 ft | 279 kts | 256° |
| 2026-05-04 21:43 | 43.59498 | -70.66278 | 10416 ft | 297 kts | 256° |
| 2026-05-04 21:43 | 43.58911 | -70.69066 | 10719 ft | 306 kts | 256° |
| 2026-05-04 21:43 | 43.58319 | -70.71903 | 11226 ft | 308 kts | 256° |
| 2026-05-04 21:44 | 43.57730 | -70.74754 | 11708 ft | 311 kts | 256° |
| 2026-05-04 21:44 | 43.57134 | -70.77636 | 12252 ft | 313 kts | 256° |
| 2026-05-04 21:44 | 43.56532 | -70.80537 | 12827 ft | 317 kts | 256° |
| 2026-05-04 21:44 | 43.55926 | -70.83462 | 13446 ft | 319 kts | 257° |
| 2026-05-04 21:45 | 43.55311 | -70.86423 | 13998 ft | 322 kts | 256° |
| 2026-05-04 21:45 | 43.54689 | -70.89407 | 14574 ft | 325 kts | 256° |
| 2026-05-04 21:45 | 43.54061 | -70.92419 | 15164 ft | 328 kts | 256° |
| 2026-05-04 21:45 | 43.53425 | -70.95460 | 15757 ft | 332 kts | 256° |
| 2026-05-04 21:46 | 43.52790 | -70.98490 | 16319 ft | 335 kts | 256° |
| 2026-05-04 21:46 | 43.52139 | -71.01587 | 16919 ft | 338 kts | 256° |
| 2026-05-04 21:46 | 43.51482 | -71.04710 | 17522 ft | 341 kts | 257° |
| 2026-05-04 21:46 | 43.50816 | -71.07869 | 18104 ft | 345 kts | 257° |
| 2026-05-04 21:47 | 43.50140 | -71.11064 | 18660 ft | 348 kts | 257° |
| 2026-05-04 21:47 | 43.49461 | -71.14283 | 19231 ft | 352 kts | 257° |
| 2026-05-04 21:47 | 43.48770 | -71.17532 | 19806 ft | 356 kts | 257° |
| 2026-05-04 21:47 | 43.48148 | -71.20456 | 20300 ft | 359 kts | 257° |
| 2026-05-04 21:48 | 43.47438 | -71.23773 | 20835 ft | 363 kts | 257° |
| 2026-05-04 21:48 | 43.46721 | -71.27124 | 21338 ft | 367 kts | 258° |
| 2026-05-04 21:48 | 43.45996 | -71.30506 | 21861 ft | 370 kts | 258° |
| 2026-05-04 21:48 | 43.45262 | -71.33920 | 22375 ft | 374 kts | 258° |
| 2026-05-04 21:49 | 43.44516 | -71.37376 | 22794 ft | 379 kts | 258° |
| 2026-05-04 21:49 | 43.43760 | -71.40867 | 23313 ft | 382 kts | 258° |
| 2026-05-04 21:49 | 43.42998 | -71.44385 | 23828 ft | 385 kts | 258° |
| 2026-05-04 21:49 | 43.42231 | -71.47926 | 24352 ft | 386 kts | 258° |
| 2026-05-04 21:50 | 43.41461 | -71.51471 | 24868 ft | 388 kts | 258° |
| 2026-05-04 21:50 | 43.40684 | -71.55038 | 25366 ft | 389 kts | 258° |
| 2026-05-04 21:50 | 43.39909 | -71.58583 | 26043 ft | 385 kts | 258° |
| 2026-05-04 21:50 | 43.39144 | -71.62093 | 26692 ft | 381 kts | 258° |
| 2026-05-04 21:51 | 43.38391 | -71.65531 | 27277 ft | 379 kts | 258° |
| 2026-05-04 21:51 | 43.37623 | -71.69038 | 27857 ft | 378 kts | 259° |
| 2026-05-04 21:51 | 43.36874 | -71.72439 | 28422 ft | 376 kts | 259° |
| 2026-05-04 21:51 | 43.36118 | -71.75869 | 28992 ft | 374 kts | 259° |
| 2026-05-04 21:52 | 43.35365 | -71.79273 | 29576 ft | 371 kts | 259° |
| 2026-05-04 21:52 | 43.34620 | -71.82644 | 29843 ft | 365 kts | 259° |
| 2026-05-04 21:52 | 43.33882 | -71.85921 | 29775 ft | 354 kts | 259° |
| 2026-05-04 21:53 | 43.32447 | -71.92293 | 29795 ft | 347 kts | 259° |
| 2026-05-04 21:53 | 43.31022 | -71.98621 | 29813 ft | 347 kts | 259° |
| 2026-05-04 21:54 | 43.29594 | -72.04950 | 29830 ft | 346 kts | 259° |
| 2026-05-04 21:54 | 43.28172 | -72.11225 | 29825 ft | 347 kts | 259° |
| 2026-05-04 21:55 | 43.26736 | -72.17544 | 29848 ft | 347 kts | 259° |
| 2026-05-04 21:55 | 43.25296 | -72.23861 | 29790 ft | 347 kts | 259° |
| 2026-05-04 21:56 | 43.23854 | -72.30147 | 29791 ft | 343 kts | 259° |
| 2026-05-04 21:56 | 43.22421 | -72.36404 | 29806 ft | 345 kts | 259° |
| 2026-05-04 21:57 | 43.20983 | -72.42676 | 29793 ft | 345 kts | 259° |
| 2026-05-04 21:57 | 43.19546 | -72.48944 | 29799 ft | 344 kts | 259° |
| 2026-05-04 21:58 | 43.18096 | -72.55204 | 29806 ft | 345 kts | 259° |
| 2026-05-04 21:58 | 43.16641 | -72.61477 | 29788 ft | 344 kts | 259° |
| 2026-05-04 21:59 | 43.15193 | -72.67736 | 29808 ft | 345 kts | 259° |
| 2026-05-04 21:59 | 43.14091 | -72.72442 | 29803 ft | 345 kts | 258° |
| 2026-05-04 22:00 | 43.12645 | -72.78658 | 29796 ft | 344 kts | 259° |
| 2026-05-04 22:00 | 43.11185 | -72.84896 | 29817 ft | 344 kts | 259° |
| 2026-05-04 22:01 | 43.09712 | -72.91152 | 29810 ft | 346 kts | 258° |
| 2026-05-04 22:01 | 43.08229 | -72.97408 | 29812 ft | 345 kts | 259° |
| 2026-05-04 22:02 | 43.06994 | -73.02655 | 29814 ft | 346 kts | 258° |
| 2026-05-04 22:02 | 43.05836 | -73.07531 | 29803 ft | 346 kts | 258° |
| 2026-05-04 22:03 | 43.04357 | -73.13796 | 29793 ft | 346 kts | 258° |
| 2026-05-04 22:03 | 43.02868 | -73.20056 | 29792 ft | 347 kts | 258° |
| 2026-05-04 22:04 | 43.01373 | -73.26321 | 29790 ft | 346 kts | 258° |
| 2026-05-04 22:04 | 42.99880 | -73.32576 | 29798 ft | 346 kts | 257° |
| 2026-05-04 22:04 | 42.98827 | -73.35584 | 29836 ft | 357 kts | 246° |
| 2026-05-04 22:05 | 42.97400 | -73.38388 | 29824 ft | 361 kts | 242° |
| 2026-05-04 22:05 | 42.94431 | -73.43928 | 29797 ft | 361 kts | 242° |
| 2026-05-04 22:06 | 42.91461 | -73.49452 | 29803 ft | 361 kts | 242° |
| 2026-05-04 22:06 | 42.88507 | -73.54941 | 29793 ft | 361 kts | 242° |
| 2026-05-04 22:07 | 42.85533 | -73.60460 | 29794 ft | 361 kts | 242° |
| 2026-05-04 22:07 | 42.82552 | -73.65984 | 29785 ft | 362 kts | 241° |
| 2026-05-04 22:08 | 42.79566 | -73.71502 | 29784 ft | 362 kts | 241° |
| 2026-05-04 22:08 | 42.76011 | -73.76479 | 29799 ft | 380 kts | 221° |
| 2026-05-04 22:08 | 42.73630 | -73.78153 | 29801 ft | 393 kts | 208° |
| 2026-05-04 22:09 | 42.70930 | -73.79042 | 29807 ft | 406 kts | 193° |
| 2026-05-04 22:09 | 42.68071 | -73.79005 | 29814 ft | 417 kts | 180° |
| 2026-05-04 22:09 | 42.65184 | -73.78433 | 29808 ft | 420 kts | 176° |
| 2026-05-04 22:10 | 42.59453 | -73.77132 | 29788 ft | 419 kts | 177° |
| 2026-05-04 22:10 | 42.53688 | -73.75893 | 29786 ft | 419 kts | 177° |
| 2026-05-04 22:11 | 42.47918 | -73.74679 | 29797 ft | 419 kts | 177° |
| 2026-05-04 22:11 | 42.42161 | -73.73485 | 29795 ft | 418 kts | 177° |
| 2026-05-04 22:11 | 42.39276 | -73.72890 | 29609 ft | 421 kts | 177° |
| 2026-05-04 22:12 | 42.36383 | -73.72293 | 29333 ft | 419 kts | 177° |
| 2026-05-04 22:12 | 42.33560 | -73.71709 | 28842 ft | 422 kts | 177° |
| 2026-05-04 22:12 | 42.30653 | -73.71112 | 28262 ft | 421 kts | 177° |
| 2026-05-04 22:12 | 42.27761 | -73.70511 | 27667 ft | 420 kts | 176° |
| 2026-05-04 22:13 | 42.24876 | -73.69913 | 27110 ft | 418 kts | 176° |
| 2026-05-04 22:13 | 42.22002 | -73.69317 | 26564 ft | 418 kts | 176° |
| 2026-05-04 22:13 | 42.19124 | -73.68724 | 26014 ft | 418 kts | 176° |
| 2026-05-04 22:13 | 42.16244 | -73.68128 | 25448 ft | 419 kts | 176° |
| 2026-05-04 22:14 | 42.13362 | -73.67536 | 24902 ft | 419 kts | 176° |
| 2026-05-04 22:14 | 42.10492 | -73.66945 | 24333 ft | 416 kts | 176° |
| 2026-05-04 22:14 | 42.07643 | -73.66356 | 23780 ft | 411 kts | 176° |
| 2026-05-04 22:14 | 42.04826 | -73.65775 | 23192 ft | 407 kts | 176° |
| 2026-05-04 22:15 | 42.02408 | -73.65278 | 22782 ft | 399 kts | 176° |
| 2026-05-04 22:15 | 41.99709 | -73.64725 | 22253 ft | 396 kts | 176° |
| 2026-05-04 22:15 | 41.96998 | -73.64168 | 21737 ft | 393 kts | 176° |
| 2026-05-04 22:15 | 41.94309 | -73.63616 | 21217 ft | 389 kts | 176° |
| 2026-05-04 22:16 | 41.91646 | -73.63072 | 20711 ft | 386 kts | 176° |
| 2026-05-04 22:16 | 41.89002 | -73.62532 | 20203 ft | 382 kts | 176° |
| 2026-05-04 22:16 | 41.86382 | -73.61997 | 19698 ft | 379 kts | 176° |
| 2026-05-04 22:16 | 41.83788 | -73.61466 | 19185 ft | 375 kts | 176° |
| 2026-05-04 22:17 | 41.81228 | -73.60953 | 18712 ft | 368 kts | 178° |
| 2026-05-04 22:17 | 41.78746 | -73.61172 | 18338 ft | 351 kts | 200° |
| 2026-05-04 22:17 | 41.76589 | -73.62550 | 17833 ft | 340 kts | 221° |
| 2026-05-04 22:17 | 41.74971 | -73.64764 | 17452 ft | 330 kts | 237° |
| 2026-05-04 22:18 | 41.73663 | -73.67278 | 16954 ft | 328 kts | 240° |
| 2026-05-04 22:18 | 41.72421 | -73.69817 | 16532 ft | 324 kts | 241° |
| 2026-05-04 22:18 | 41.71209 | -73.72351 | 16103 ft | 323 kts | 241° |
| 2026-05-04 22:18 | 41.70009 | -73.74883 | 15675 ft | 321 kts | 241° |
| 2026-05-04 22:19 | 41.68817 | -73.77405 | 15252 ft | 320 kts | 241° |
| 2026-05-04 22:19 | 41.68031 | -73.79067 | 14972 ft | 319 kts | 241° |
| 2026-05-04 22:19 | 41.67102 | -73.80639 | 14666 ft | 321 kts | 228° |
| 2026-05-04 22:20 | 41.65593 | -73.82054 | 14329 ft | 321 kts | 211° |
| 2026-05-04 22:20 | 41.63472 | -73.82966 | 13901 ft | 321 kts | 197° |
| 2026-05-04 22:20 | 41.61289 | -73.83522 | 13439 ft | 317 kts | 195° |
| 2026-05-04 22:20 | 41.59143 | -73.84031 | 13056 ft | 309 kts | 195° |
| 2026-05-04 22:21 | 41.57059 | -73.84595 | 12645 ft | 303 kts | 197° |
| 2026-05-04 22:21 | 41.55015 | -73.85165 | 12242 ft | 297 kts | 197° |
| 2026-05-04 22:21 | 41.52998 | -73.85710 | 11854 ft | 294 kts | 196° |
| 2026-05-04 22:21 | 41.51004 | -73.86236 | 11468 ft | 290 kts | 196° |
| 2026-05-04 22:22 | 41.49026 | -73.86754 | 11087 ft | 289 kts | 196° |
| 2026-05-04 22:22 | 41.47054 | -73.87262 | 10726 ft | 288 kts | 196° |
| 2026-05-04 22:22 | 41.45092 | -73.87753 | 10338 ft | 286 kts | 192° |
| 2026-05-04 22:22 | 41.43098 | -73.87552 | 9959 ft | 293 kts | 166° |
| 2026-05-04 22:23 | 41.41294 | -73.86254 | 9611 ft | 296 kts | 150° |
| 2026-05-04 22:23 | 41.39597 | -73.84683 | 9171 ft | 297 kts | 149° |
| 2026-05-04 22:23 | 41.37934 | -73.83128 | 8785 ft | 294 kts | 149° |
| 2026-05-04 22:23 | 41.36271 | -73.81569 | 8405 ft | 291 kts | 149° |
| 2026-05-04 22:24 | 41.34612 | -73.80056 | 8163 ft | 285 kts | 150° |
| 2026-05-04 22:24 | 41.32979 | -73.78585 | 8030 ft | 284 kts | 150° |
| 2026-05-04 22:24 | 41.31344 | -73.77113 | 7990 ft | 284 kts | 150° |
| 2026-05-04 22:24 | 41.29699 | -73.75626 | 7976 ft | 287 kts | 150° |
| 2026-05-04 22:25 | 41.28065 | -73.74150 | 7984 ft | 277 kts | 150° |
| 2026-05-04 22:25 | 41.27032 | -73.73211 | 7957 ft | 266 kts | 150° |
| 2026-05-04 22:25 | 41.26244 | -73.72500 | 7934 ft | 262 kts | 151° |